Time;durP1;ratioP1;P1;durP2;ratioP2;P2;SDS_P1;SDS_P2;PMS_P1;PMS_P2;Temp;Humidity;BMP_temperature;BMP_pressure;BME280_temperature;BME280_humidity;BME280_pressure;Samples;Min_cycle;Max_cycle;Signal;HPM_P1;HPM_P2
2021/11/21 00:02:12;;;;;;;33.28;15.82;;;;;;;2.52;100.00;96758.91;4998022;28;20131;-60
2021/11/21 00:04:38;;;;;;;32.60;15.40;;;;;;;2.45;100.00;96759.34;5002757;28;20523;-63
2021/11/21 00:07:04;;;;;;;32.55;15.50;;;;;;;2.46;100.00;96754.72;4997079;28;20050;-60
2021/11/21 00:09:29;;;;;;;31.50;15.70;;;;;;;2.46;100.00;96757.44;5003270;28;20053;-60
2021/11/21 00:11:55;;;;;;;30.98;14.93;;;;;;;2.42;100.00;96751.06;4997528;28;20042;-62
2021/11/21 00:14:20;;;;;;;33.20;16.38;;;;;;;2.34;100.00;96749.94;4980005;28;20049;-63
2021/11/21 00:16:46;;;;;;;36.50;17.83;;;;;;;2.26;100.00;96754.16;5000860;28;20188;-61
2021/11/21 00:19:11;;;;;;;30.27;15.73;;;;;;;2.28;100.00;96751.94;4996865;28;20045;-63
2021/11/21 00:21:36;;;;;;;32.88;16.60;;;;;;;2.16;100.00;96745.53;5002074;28;20751;-61
2021/11/21 00:24:02;;;;;;;32.53;15.55;;;;;;;2.35;100.00;96742.59;5006805;28;20053;-63
2021/11/21 00:26:28;;;;;;;31.38;15.32;;;;;;;2.28;100.00;96735.72;5006726;28;20045;-63
2021/11/21 00:28:53;;;;;;;32.15;15.13;;;;;;;2.37;100.00;96730.34;5004658;28;20070;-60
2021/11/21 00:31:21;;;;;;;32.38;15.30;;;;;;;2.58;100.00;96722.47;4998597;28;20475;-62
2021/11/21 00:33:47;;;;;;;27.98;13.60;;;;;;;2.55;100.00;96725.03;5002052;28;20049;-62
2021/11/21 00:36:12;;;;;;;33.55;16.70;;;;;;;2.36;100.00;96725.25;5009059;28;20561;-61
2021/11/21 00:38:38;;;;;;;32.08;15.70;;;;;;;2.38;100.00;96718.44;5003173;28;20038;-61
2021/11/21 00:41:04;;;;;;;30.70;14.77;;;;;;;2.33;100.00;96707.00;4999732;28;20498;-61
2021/11/21 00:43:30;;;;;;;31.35;15.93;;;;;;;2.32;100.00;96710.78;5003849;28;20046;-62
2021/11/21 00:45:55;;;;;;;29.33;15.15;;;;;;;2.24;100.00;96701.53;5002816;28;20044;-61
2021/11/21 00:48:22;;;;;;;32.22;15.13;;;;;;;2.20;100.00;96704.06;4992143;28;20377;-61
2021/11/21 00:50:51;;;;;;;31.65;15.38;;;;;;;2.10;100.00;96691.63;5007080;28;20045;-62
2021/11/21 00:53:17;;;;;;;29.30;14.33;;;;;;;2.17;100.00;96688.47;4998657;28;20475;-61
2021/11/21 00:58:15;;;;;;;32.17;16.67;;;;;;;1.98;100.00;96696.03;4998575;28;20076;-61
2021/11/21 01:00:44;;;;;;;36.92;16.95;;;;;;;1.95;100.00;96693.97;5000359;28;20461;-61
2021/11/21 01:03:13;;;;;;;36.83;16.95;;;;;;;1.96;100.00;96693.63;4996702;28;20045;-62
2021/11/21 01:05:40;;;;;;;35.65;17.45;;;;;;;2.00;100.00;96685.69;5000791;28;20096;-63
2021/11/21 01:08:05;;;;;;;37.25;18.08;;;;;;;1.98;100.00;96682.50;4997036;28;20041;-62
2021/11/21 01:10:32;;;;;;;34.47;17.20;;;;;;;1.95;100.00;96677.75;5002708;28;20038;-59
2021/11/21 01:12:58;;;;;;;33.50;17.40;;;;;;;2.30;100.00;96673.25;5003430;28;20107;-61
2021/11/21 01:15:24;;;;;;;34.60;17.50;;;;;;;2.26;100.00;96667.69;4996484;28;20058;-60
2021/11/21 01:17:52;;;;;;;31.13;15.45;;;;;;;2.16;100.00;96667.97;5001904;28;20046;-61
2021/11/21 01:20:18;;;;;;;35.70;15.90;;;;;;;2.15;100.00;96666.38;4992930;28;20061;-60
2021/11/21 01:22:44;;;;;;;35.83;16.77;;;;;;;2.12;100.00;96672.41;5001561;28;20073;-63
2021/11/21 01:25:11;;;;;;;31.77;16.65;;;;;;;2.28;100.00;96664.66;4997952;28;20113;-63
2021/11/21 01:27:37;;;;;;;34.60;16.50;;;;;;;2.28;100.00;96656.56;5002619;28;20045;-62
2021/11/21 01:30:06;;;;;;;29.17;15.10;;;;;;;2.27;100.00;96661.19;4999728;28;20136;-62
2021/11/21 01:32:33;;;;;;;31.65;15.00;;;;;;;2.40;100.00;96648.66;4994690;28;20053;-61
2021/11/21 01:34:58;;;;;;;31.45;16.25;;;;;;;2.37;100.00;96646.56;5000234;28;20503;-60
2021/11/21 01:37:23;;;;;;;34.33;16.15;;;;;;;2.42;100.00;96641.00;4991655;28;20625;-60
2021/11/21 01:39:49;;;;;;;32.67;16.35;;;;;;;2.56;100.00;96635.47;5002349;28;20056;-61
2021/11/21 01:42:14;;;;;;;32.13;15.52;;;;;;;2.38;100.00;96631.16;5000917;28;20042;-61
2021/11/21 01:44:40;;;;;;;30.52;16.42;;;;;;;2.43;100.00;96625.59;5001997;28;20517;-62
2021/11/21 01:47:07;;;;;;;35.25;16.13;;;;;;;2.22;100.00;96636.22;4995518;28;20041;-59
2021/11/21 01:49:33;;;;;;;31.67;16.08;;;;;;;2.18;100.00;96625.22;4997228;28;20095;-59
2021/11/21 01:51:59;;;;;;;30.23;15.93;;;;;;;2.22;100.00;96617.28;5018132;28;20137;-63
2021/11/21 01:54:24;;;;;;;35.72;15.32;;;;;;;2.04;100.00;96613.75;5016491;28;20215;-62
2021/11/21 01:56:50;;;;;;;32.55;15.57;;;;;;;2.03;100.00;96618.34;5020009;28;20045;-64
2021/11/21 01:59:16;;;;;;;38.40;19.45;;;;;;;2.02;100.00;96616.75;5026536;28;20483;-62
2021/11/21 02:01:42;;;;;;;29.98;15.32;;;;;;;2.31;100.00;96610.00;5005108;28;20049;-62
2021/11/21 02:04:07;;;;;;;33.22;15.60;;;;;;;2.32;100.00;96603.47;5009484;28;20426;-62
2021/11/21 02:06:33;;;;;;;36.85;17.35;;;;;;;2.12;100.00;96606.75;5019589;28;20049;-61
2021/11/21 02:08:58;;;;;;;31.92;15.05;;;;;;;2.21;100.00;96602.97;5020013;28;20048;-62
2021/11/21 02:11:26;;;;;;;30.50;15.32;;;;;;;2.20;100.00;96595.19;4995691;28;20049;-60
2021/11/21 02:13:53;;;;;;;31.80;14.80;;;;;;;2.49;100.00;96589.19;5000723;28;20046;-61
2021/11/21 02:16:21;;;;;;;32.35;15.55;;;;;;;2.47;100.00;96594.91;4994951;28;20042;-62
2021/11/21 02:18:48;;;;;;;30.15;15.23;;;;;;;2.37;100.00;96589.00;4998844;28;20034;-63
2021/11/21 02:21:18;;;;;;;29.92;13.95;;;;;;;2.19;100.00;96586.28;4994459;28;20446;-63
2021/11/21 02:23:45;;;;;;;31.25;13.93;;;;;;;2.08;100.00;96585.78;5001181;28;20037;-62
2021/11/21 02:26:13;;;;;;;32.20;15.48;;;;;;;2.01;100.00;96579.25;4984128;28;20046;-62
2021/11/21 02:28:39;;;;;;;28.05;14.27;;;;;;;1.95;100.00;96588.63;4981933;28;20388;-63
2021/11/21 02:31:05;;;;;;;28.85;14.32;;;;;;;1.79;100.00;96580.13;4976252;28;20098;-59
2021/11/21 02:33:30;;;;;;;29.90;15.07;;;;;;;1.67;100.00;96578.81;5000926;28;20096;-61
2021/11/21 02:35:58;;;;;;;32.80;14.93;;;;;;;1.49;100.00;96574.44;5000554;28;20038;-62
2021/11/21 02:38:25;;;;;;;33.15;16.30;;;;;;;1.49;100.00;96575.22;4995641;28;20505;-63
2021/11/21 02:40:52;;;;;;;33.92;15.82;;;;;;;1.63;100.00;96571.66;5018499;28;20068;-62
2021/11/21 02:43:19;;;;;;;29.52;14.98;;;;;;;1.77;100.00;96558.06;5013360;28;20042;-61
2021/11/21 02:45:46;;;;;;;30.88;15.27;;;;;;;1.94;100.00;96560.78;5021236;28;20052;-62
2021/11/21 02:48:17;;;;;;;29.27;14.77;;;;;;;1.90;100.00;96554.44;5013703;28;20086;-63
2021/11/21 02:50:43;;;;;;;30.25;14.75;;;;;;;1.83;100.00;96552.19;5020678;28;20395;-63
2021/11/21 02:53:09;;;;;;;32.17;15.35;;;;;;;1.95;100.00;96542.69;5015224;28;20056;-62
2021/11/21 02:55:34;;;;;;;27.70;14.48;;;;;;;1.87;100.00;96542.34;5020468;28;20045;-61
2021/11/21 02:58:03;;;;;;;28.73;14.63;;;;;;;1.86;100.00;96534.56;5019082;28;20048;-63
2021/11/21 03:00:29;;;;;;;32.22;15.93;;;;;;;1.91;100.00;96532.50;5018615;28;20037;-61
2021/11/21 03:02:55;;;;;;;32.38;14.40;;;;;;;1.89;100.00;96529.34;5020806;28;20049;-62
2021/11/21 03:05:20;;;;;;;32.10;15.27;;;;;;;1.95;100.00;96526.50;5015933;28;20101;-61
2021/11/21 03:07:48;;;;;;;31.58;14.93;;;;;;;2.01;100.00;96526.00;5018285;28;20037;-61
2021/11/21 03:10:18;;;;;;;32.17;15.27;;;;;;;1.92;100.00;96525.97;5015224;28;20044;-61
2021/11/21 03:12:45;;;;;;;31.33;15.45;;;;;;;2.11;100.00;96527.63;5022504;28;20061;-61
2021/11/21 03:15:11;;;;;;;29.48;13.82;;;;;;;2.12;100.00;96521.09;4994575;28;20430;-61
2021/11/21 03:17:39;;;;;;;29.65;13.60;;;;;;;2.12;100.00;96521.09;5000536;28;20046;-62
2021/11/21 03:20:05;;;;;;;30.40;15.02;;;;;;;1.95;100.00;96519.16;4993579;28;20559;-61
2021/11/21 03:22:31;;;;;;;31.73;15.05;;;;;;;1.77;100.00;96512.16;5005692;28;20105;-62
2021/11/21 03:24:56;;;;;;;28.15;14.65;;;;;;;1.90;100.00;96505.81;5002230;28;20038;-62
2021/11/21 03:27:23;;;;;;;35.38;16.25;;;;;;;1.95;100.00;96504.88;4998306;28;20639;-62
2021/11/21 03:29:49;;;;;;;29.15;14.18;;;;;;;1.92;100.00;96504.38;5005166;28;20050;-62
2021/11/21 03:32:16;;;;;;;32.85;15.75;;;;;;;1.81;100.00;96500.38;4999257;28;20399;-61
2021/11/21 03:34:43;;;;;;;33.45;15.07;;;;;;;1.77;100.00;96504.03;5000836;28;20518;-62
2021/11/21 03:37:09;;;;;;;33.15;15.77;;;;;;;1.77;100.00;96494.03;4999509;28;20045;-62
2021/11/21 03:39:35;;;;;;;30.27;14.90;;;;;;;1.85;100.00;96501.34;5002704;28;20037;-62
2021/11/21 03:42:01;;;;;;;31.60;15.88;;;;;;;1.81;100.00;96505.00;5003962;28;20037;-62
2021/11/21 03:44:26;;;;;;;30.73;15.35;;;;;;;1.85;100.00;96500.56;4992208;28;20045;-62
2021/11/21 03:46:52;;;;;;;34.33;15.95;;;;;;;1.78;100.00;96500.22;5004342;28;20045;-63
2021/11/21 03:49:18;;;;;;;29.02;15.73;;;;;;;1.72;100.00;96496.88;4997206;28;20042;-64
2021/11/21 03:51:43;;;;;;;31.85;15.75;;;;;;;1.90;100.00;96495.78;5003614;28;20050;-63
2021/11/21 03:54:08;;;;;;;31.63;16.02;;;;;;;2.00;100.00;96492.00;4999177;28;20120;-62
2021/11/21 03:56:34;;;;;;;28.48;14.50;;;;;;;2.00;100.00;96491.19;5004968;28;20045;-62
2021/11/21 03:59:00;;;;;;;29.35;13.95;;;;;;;2.12;100.00;96485.97;5002492;28;20038;-62
2021/11/21 04:01:25;;;;;;;30.83;14.05;;;;;;;1.97;100.00;96479.13;4993551;28;20049;-62
2021/11/21 04:03:51;;;;;;;27.88;13.65;;;;;;;2.04;100.00;96476.75;5002068;28;20065;-63
2021/11/21 04:06:16;;;;;;;25.90;13.45;;;;;;;1.94;100.00;96476.25;4996845;28;20411;-62
2021/11/21 04:08:42;;;;;;;33.25;14.27;;;;;;;1.95;100.00;96483.28;5001938;28;20050;-63
2021/11/21 04:11:08;;;;;;;31.50;14.70;;;;;;;2.06;100.00;96471.81;4998622;28;20045;-62
2021/11/21 04:13:34;;;;;;;35.03;14.23;;;;;;;2.04;100.00;96470.56;5001161;28;20050;-62
2021/11/21 04:15:59;;;;;;;32.60;15.52;;;;;;;1.77;100.00;96464.34;4998633;28;20162;-62
2021/11/21 04:18:25;;;;;;;32.35;15.73;;;;;;;1.82;100.00;96463.38;4995618;28;20044;-62
2021/11/21 04:20:51;;;;;;;33.85;14.95;;;;;;;1.76;100.00;96462.72;5002969;28;20056;-61
2021/11/21 04:23:16;;;;;;;32.72;14.93;;;;;;;1.75;100.00;96455.75;4995689;28;20127;-62
2021/11/21 04:25:42;;;;;;;32.58;15.75;;;;;;;1.58;100.00;96451.09;4999657;28;20046;-63
2021/11/21 04:28:09;;;;;;;31.10;15.25;;;;;;;1.70;100.00;96445.88;4997510;28;20041;-60
2021/11/21 04:30:35;;;;;;;34.75;15.27;;;;;;;1.70;100.00;96439.69;5000544;28;20407;-61
2021/11/21 04:33:03;;;;;;;35.53;16.90;;;;;;;1.82;100.00;96444.47;5003240;28;20046;-61
2021/11/21 04:35:28;;;;;;;34.40;15.40;;;;;;;1.79;100.00;96437.81;5000051;28;20069;-61
2021/11/21 04:37:54;;;;;;;30.85;14.75;;;;;;;1.73;100.00;96433.69;5003113;28;20171;-62
2021/11/21 04:40:19;;;;;;;34.97;16.20;;;;;;;1.90;100.00;96430.97;4999635;28;20041;-64
2021/11/21 04:42:46;;;;;;;33.40;14.55;;;;;;;1.97;100.00;96429.72;5005566;28;20049;-61
2021/11/21 04:45:13;;;;;;;31.30;15.55;;;;;;;1.90;100.00;96430.19;5006767;28;20089;-62
2021/11/21 04:47:39;;;;;;;32.40;14.82;;;;;;;1.86;100.00;96424.63;4984220;28;20038;-62
2021/11/21 04:50:05;;;;;;;32.17;15.13;;;;;;;1.72;100.00;96424.75;4993965;28;20439;-61
2021/11/21 04:52:31;;;;;;;29.25;14.05;;;;;;;1.71;100.00;96419.66;5000321;28;20045;-62
2021/11/21 04:54:57;;;;;;;37.38;15.95;;;;;;;1.78;100.00;96424.63;5002653;28;20140;-61
2021/11/21 04:57:22;;;;;;;35.08;16.83;;;;;;;1.84;100.00;96417.97;4996734;28;20502;-63
2021/11/21 04:59:48;;;;;;;36.00;16.20;;;;;;;1.84;100.00;96417.97;5001686;28;20046;-62
2021/11/21 05:02:13;;;;;;;33.63;15.57;;;;;;;1.82;100.00;96423.69;4996826;28;20677;-63
2021/11/21 05:04:39;;;;;;;34.70;16.17;;;;;;;1.91;100.00;96416.38;5001534;28;20096;-63
2021/11/21 05:07:04;;;;;;;32.28;14.75;;;;;;;1.91;100.00;96419.06;4995172;28;20045;-62
2021/11/21 05:09:30;;;;;;;34.40;16.77;;;;;;;1.88;100.00;96416.22;5002225;28;20103;-63
2021/11/21 05:11:55;;;;;;;32.95;14.40;;;;;;;1.87;100.00;96420.00;5002019;28;20137;-63
2021/11/21 05:14:21;;;;;;;32.28;14.85;;;;;;;1.84;100.00;96413.34;4995195;28;21636;-63
2021/11/21 05:16:48;;;;;;;32.63;16.38;;;;;;;1.90;100.00;96413.97;5001749;28;20119;-62
2021/11/21 05:19:13;;;;;;;33.00;14.95;;;;;;;1.85;100.00;96416.84;4995375;28;20042;-62
2021/11/21 05:21:39;;;;;;;32.75;14.38;;;;;;;1.84;100.00;96402.53;4998314;28;20065;-64
2021/11/21 05:24:05;;;;;;;28.10;14.10;;;;;;;1.85;100.00;96403.34;4995628;28;20045;-63
2021/11/21 05:26:30;;;;;;;34.33;15.27;;;;;;;1.80;100.00;96404.31;5002230;28;20064;-64
2021/11/21 05:28:56;;;;;;;29.63;14.05;;;;;;;1.60;100.00;96400.28;5000182;28;20521;-64
2021/11/21 05:31:22;;;;;;;31.10;14.73;;;;;;;1.65;100.00;96405.53;4994224;28;20535;-63
2021/11/21 05:33:48;;;;;;;29.38;13.98;;;;;;;1.69;100.00;96405.69;5001902;28;20491;-62
2021/11/21 05:36:14;;;;;;;33.47;15.18;;;;;;;1.67;100.00;96405.22;4996156;28;20103;-63
2021/11/21 05:38:40;;;;;;;29.77;14.40;;;;;;;1.59;100.00;96401.41;5000219;28;20438;-63
2021/11/21 05:41:06;;;;;;;29.98;14.68;;;;;;;1.66;100.00;96398.25;4996693;28;20053;-61
2021/11/21 05:43:31;;;;;;;32.38;15.63;;;;;;;1.67;100.00;96397.13;4998288;28;20045;-63
2021/11/21 05:45:57;;;;;;;30.83;15.32;;;;;;;1.56;100.00;96399.34;5000973;28;20041;-63
2021/11/21 05:48:23;;;;;;;33.05;15.73;;;;;;;1.58;100.00;96399.81;4994902;28;21016;-63
2021/11/21 05:50:48;;;;;;;30.60;14.75;;;;;;;1.50;100.00;96404.09;5000070;28;20038;-63
2021/11/21 05:53:13;;;;;;;33.00;15.02;;;;;;;1.54;100.00;96401.56;4988503;28;20049;-62
2021/11/21 05:55:39;;;;;;;32.35;14.65;;;;;;;1.62;100.00;96395.38;5001330;28;20078;-62
2021/11/21 05:58:04;;;;;;;29.10;13.75;;;;;;;1.70;100.00;96399.19;4996764;28;20403;-61
2021/11/21 06:00:30;;;;;;;30.75;14.13;;;;;;;1.69;100.00;96393.00;5000737;28;20483;-61
2021/11/21 06:02:56;;;;;;;29.20;14.10;;;;;;;1.76;100.00;96392.53;5000267;28;20116;-62
2021/11/21 06:05:21;;;;;;;31.42;14.90;;;;;;;1.77;100.00;96393.34;4997345;28;20677;-62
2021/11/21 06:07:47;;;;;;;29.50;14.85;;;;;;;1.78;100.00;96387.59;5012201;28;20049;-62
2021/11/21 06:10:14;;;;;;;31.38;15.00;;;;;;;1.80;100.00;96387.28;4995644;28;20399;-60
2021/11/21 06:12:40;;;;;;;31.50;14.55;;;;;;;1.85;100.00;96384.44;4999486;28;20053;-62
2021/11/21 06:15:08;;;;;;;29.42;14.30;;;;;;;1.93;100.00;96383.66;4996655;28;20042;-62
2021/11/21 06:17:34;;;;;;;31.63;14.02;;;;;;;1.94;100.00;96385.22;4998309;28;20053;-62
2021/11/21 06:19:59;;;;;;;31.40;14.75;;;;;;;1.92;100.00;96387.44;4999537;28;20487;-62
2021/11/21 06:22:25;;;;;;;30.88;14.88;;;;;;;1.84;100.00;96386.34;4994565;28;20152;-61
2021/11/21 06:24:50;;;;;;;34.50;14.52;;;;;;;1.87;100.00;96382.19;5000465;28;20109;-62
2021/11/21 06:27:16;;;;;;;31.60;14.80;;;;;;;1.86;100.00;96378.72;4995041;28;20045;-62
2021/11/21 06:29:43;;;;;;;30.42;14.00;;;;;;;1.80;100.00;96376.47;4995268;28;20386;-61
2021/11/21 06:32:08;;;;;;;30.98;14.80;;;;;;;1.86;100.00;96378.72;4993134;28;20052;-58
2021/11/21 06:34:34;;;;;;;27.25;13.85;;;;;;;1.78;100.00;96381.41;5001714;28;20049;-61
2021/11/21 06:37:01;;;;;;;30.67;13.20;;;;;;;1.72;100.00;96383.47;4998864;28;20076;-61
2021/11/21 06:39:26;;;;;;;38.95;16.77;;;;;;;1.69;100.00;96378.69;4989153;28;20065;-61
2021/11/21 06:41:52;;;;;;;32.67;15.60;;;;;;;1.62;100.00;96384.59;5001083;28;20565;-61
2021/11/21 06:44:17;;;;;;;33.90;15.02;;;;;;;1.44;100.00;96378.38;4994321;28;20538;-62
2021/11/21 06:46:43;;;;;;;33.20;15.35;;;;;;;1.48;100.00;96376.63;5001301;28;20041;-60
2021/11/21 06:49:08;;;;;;;33.15;15.35;;;;;;;1.35;100.00;96372.13;4996054;28;20137;-61
2021/11/21 06:51:34;;;;;;;35.33;15.57;;;;;;;1.44;100.00;96375.69;5000467;28;20050;-62
2021/11/21 06:54:00;;;;;;;34.72;15.10;;;;;;;1.50;100.00;96369.00;4996101;28;20069;-62
2021/11/21 06:56:29;;;;;;;34.67;14.80;;;;;;;1.51;100.00;96372.50;4991561;28;20096;-61
2021/11/21 06:58:56;;;;;;;32.17;14.77;;;;;;;1.67;100.00;96373.59;4995131;28;20055;-63
2021/11/21 07:01:21;;;;;;;28.67;14.73;;;;;;;1.69;100.00;96362.50;4992860;28;20128;-62
2021/11/21 07:03:47;;;;;;;29.08;14.80;;;;;;;1.67;100.00;96368.22;4999896;28;20121;-61
2021/11/21 07:06:43;;;;;;;29.88;14.40;;;;;;;1.72;100.00;96370.75;4993971;28;20042;-62
2021/11/21 07:09:14;;;;;;;34.20;15.88;;;;;;;1.63;100.00;96358.38;4974881;28;20476;-62
2021/11/21 07:11:40;;;;;;;28.17;13.48;;;;;;;1.72;100.00;96368.06;4995011;28;20052;-62
2021/11/21 07:14:07;;;;;;;30.75;14.07;;;;;;;1.64;100.00;96355.38;4993444;28;20050;-62
2021/11/21 07:16:33;;;;;;;28.45;13.68;;;;;;;1.71;100.00;96360.28;4997339;28;20187;-62
2021/11/21 07:18:58;;;;;;;31.13;13.80;;;;;;;1.79;100.00;96361.41;4998667;28;20398;-63
2021/11/21 07:21:24;;;;;;;26.38;12.45;;;;;;;1.77;100.00;96355.53;4995020;28;20041;-62
2021/11/21 07:23:50;;;;;;;30.00;13.50;;;;;;;1.79;100.00;96350.59;4995786;28;20045;-64
2021/11/21 07:26:15;;;;;;;24.83;12.88;;;;;;;1.86;100.00;96346.31;4990539;28;20069;-63
2021/11/21 07:28:42;;;;;;;26.10;12.02;;;;;;;1.85;100.00;96341.22;4997679;28;20072;-62
2021/11/21 07:31:07;;;;;;;25.65;13.43;;;;;;;1.83;100.00;96341.53;4995276;28;20713;-64
2021/11/21 07:33:33;;;;;;;24.90;12.80;;;;;;;1.84;100.00;96339.66;4999514;28;20141;-63
2021/11/21 07:35:59;;;;;;;28.00;12.52;;;;;;;1.96;100.00;96342.47;5002073;28;20096;-62
2021/11/21 07:38:25;;;;;;;26.30;11.98;;;;;;;1.95;100.00;96345.53;4989092;28;20034;-62
2021/11/21 07:40:52;;;;;;;26.92;12.40;;;;;;;1.95;100.00;96337.41;4992874;28;20100;-62
2021/11/21 07:43:21;;;;;;;23.50;12.00;;;;;;;2.03;100.00;96342.78;4970245;28;20065;-62
2021/11/21 07:45:47;;;;;;;26.02;13.48;;;;;;;1.99;100.00;96332.94;4995268;28;20069;-64
2021/11/21 07:48:12;;;;;;;26.63;12.43;;;;;;;2.02;100.00;96340.44;4992395;28;20073;-62
2021/11/21 07:50:38;;;;;;;22.38;11.23;;;;;;;1.92;100.00;96336.13;4990277;28;20392;-64
2021/11/21 07:53:03;;;;;;;23.77;12.27;;;;;;;1.70;100.00;96337.88;4991762;28;20104;-62
2021/11/21 07:55:29;;;;;;;25.42;12.85;;;;;;;1.70;100.00;96331.69;4995131;28;20045;-63
2021/11/21 07:57:54;;;;;;;25.17;12.05;;;;;;;1.83;100.00;96333.44;4998737;28;20136;-62
2021/11/21 08:00:20;;;;;;;23.52;11.73;;;;;;;1.81;100.00;96330.25;4993824;28;20521;-61
2021/11/21 08:02:46;;;;;;;21.10;12.13;;;;;;;1.95;100.00;96332.81;4999041;28;20038;-62
2021/11/21 08:05:11;;;;;;;22.55;11.50;;;;;;;2.06;100.00;96331.34;4992424;28;20046;-62
2021/11/21 08:07:37;;;;;;;21.58;11.25;;;;;;;1.90;100.00;96327.56;4999326;28;20141;-63
2021/11/21 08:10:05;;;;;;;26.95;13.00;;;;;;;2.13;100.00;96333.56;4995115;28;20042;-63
2021/11/21 08:12:31;;;;;;;23.65;11.88;;;;;;;2.23;100.00;96329.72;4999727;28;20050;-62
2021/11/21 08:14:56;;;;;;;23.08;11.10;;;;;;;2.14;100.00;96327.03;4999402;28;20041;-63
2021/11/21 08:17:21;;;;;;;24.08;11.80;;;;;;;2.16;100.00;96337.53;4997062;28;20050;-62
2021/11/21 08:19:47;;;;;;;21.00;10.90;;;;;;;2.25;100.00;96324.78;5001171;28;20104;-63
2021/11/21 08:22:12;;;;;;;19.80;11.10;;;;;;;2.19;100.00;96326.88;4997616;28;20490;-63
2021/11/21 08:24:38;;;;;;;23.45;11.40;;;;;;;1.98;100.00;96320.56;4997844;28;20449;-63
2021/11/21 08:27:04;;;;;;;22.30;11.55;;;;;;;2.02;100.00;96329.63;4994433;28;20114;-60
2021/11/21 08:29:29;;;;;;;23.35;12.15;;;;;;;2.09;100.00;96335.34;4994515;28;20107;-64
2021/11/21 08:31:56;;;;;;;22.88;12.52;;;;;;;2.06;100.00;96341.38;5003454;28;20046;-63
2021/11/21 08:34:22;;;;;;;21.90;11.27;;;;;;;2.02;100.00;96330.41;4996671;28;20140;-63
2021/11/21 08:36:49;;;;;;;22.30;12.05;;;;;;;2.26;100.00;96331.78;5009311;28;20048;-62
2021/11/21 08:39:15;;;;;;;23.10;11.90;;;;;;;2.33;100.00;96329.38;5004479;28;20061;-63
2021/11/21 08:41:40;;;;;;;25.40;11.98;;;;;;;2.48;100.00;96330.78;4998017;28;20593;-63
2021/11/21 08:44:05;;;;;;;23.10;12.30;;;;;;;2.38;100.00;96331.13;4995382;28;20103;-63
2021/11/21 08:46:33;;;;;;;26.42;12.60;;;;;;;2.21;100.00;96327.34;5000830;28;20056;-63
2021/11/21 08:48:58;;;;;;;20.00;11.23;;;;;;;2.29;100.00;96323.03;5003517;28;20503;-63
2021/11/21 08:51:24;;;;;;;28.88;12.10;;;;;;;2.40;100.00;96326.19;4997735;28;20088;-64
2021/11/21 08:53:49;;;;;;;22.38;10.77;;;;;;;2.55;100.00;96327.56;5003424;28;20123;-62
2021/11/21 08:56:16;;;;;;;17.58;10.00;;;;;;;2.50;100.00;96328.53;4991750;28;20046;-64
2021/11/21 08:58:43;;;;;;;19.60;10.45;;;;;;;2.52;100.00;96330.91;5002472;28;20431;-63
2021/11/21 09:01:10;;;;;;;19.42;10.70;;;;;;;2.52;100.00;96331.72;4992319;28;20040;-63
2021/11/21 09:03:36;;;;;;;19.00;10.30;;;;;;;2.72;100.00;96324.00;4997292;28;20046;-64
2021/11/21 09:06:02;;;;;;;16.77;9.35;;;;;;;2.70;100.00;96328.94;4996559;28;20052;-63
2021/11/21 09:08:29;;;;;;;19.70;10.38;;;;;;;2.46;100.00;96331.09;5000478;28;20069;-63
2021/11/21 09:10:56;;;;;;;18.23;10.13;;;;;;;2.44;100.00;96330.63;4999444;28;20034;-63
2021/11/21 09:13:21;;;;;;;23.00;10.80;;;;;;;2.80;100.00;96323.97;4996976;28;20161;-62
2021/11/21 09:15:47;;;;;;;20.13;10.63;;;;;;;2.73;100.00;96312.88;5000506;28;20128;-63
2021/11/21 09:18:13;;;;;;;20.65;11.00;;;;;;;2.87;100.00;96312.66;4996732;28;20402;-62
2021/11/21 09:20:39;;;;;;;19.77;10.45;;;;;;;2.97;100.00;96316.88;5000084;28;20046;-63
2021/11/21 09:23:10;;;;;;;18.60;10.43;;;;;;;3.14;100.00;96310.59;4994728;28;20125;-62
2021/11/21 09:25:36;;;;;;;17.30;9.63;;;;;;;3.33;100.00;96308.25;4999443;28;20041;-63
2021/11/21 09:28:01;;;;;;;25.80;12.35;;;;;;;3.12;100.00;96310.91;4995877;28;20054;-63
2021/11/21 09:30:27;;;;;;;18.42;9.18;;;;;;;3.17;100.00;96307.22;4992181;28;20248;-62
2021/11/21 09:32:53;;;;;;;17.35;10.77;;;;;;;3.12;100.00;96302.03;5000889;28;20093;-62
2021/11/21 09:35:20;;;;;;;16.63;9.13;;;;;;;3.01;100.00;96301.59;4995705;28;20042;-62
2021/11/21 09:37:46;;;;;;;16.85;9.77;;;;;;;3.33;100.00;96296.59;5000624;28;20046;-61
2021/11/21 09:40:13;;;;;;;17.10;9.88;;;;;;;3.60;100.00;96308.81;4995212;28;20045;-63
2021/11/21 09:42:39;;;;;;;14.80;8.98;;;;;;;3.47;100.00;96312.59;4999783;28;20038;-63
2021/11/21 09:45:07;;;;;;;19.30;9.07;;;;;;;3.52;100.00;96307.78;4991631;28;20042;-62
2021/11/21 09:47:32;;;;;;;17.38;9.40;;;;;;;3.25;100.00;96300.97;4997118;28;20478;-63
2021/11/21 09:50:07;;;;;;;14.63;8.60;;;;;;;3.49;100.00;96300.31;4997837;28;20046;-62
2021/11/21 09:52:33;;;;;;;15.50;8.63;;;;;;;3.46;100.00;96287.44;4995376;28;20067;-63
2021/11/21 09:54:59;;;;;;;17.73;9.38;;;;;;;3.65;100.00;96289.69;5002021;28;20531;-63
2021/11/21 09:57:24;;;;;;;17.50;9.27;;;;;;;3.54;100.00;96296.63;4997142;28;20041;-64
2021/11/21 09:59:59;;;;;;;17.45;9.40;;;;;;;3.91;100.00;96291.38;4999309;28;20052;-58
2021/11/21 10:02:34;;;;;;;16.40;9.35;;;;;;;4.06;100.00;96292.66;4987820;28;20045;-63
2021/11/21 10:05:08;;;;;;;15.52;9.07;;;;;;;3.89;100.00;96286.28;4998961;28;20059;-61
2021/11/21 10:07:35;;;;;;;15.90;9.27;;;;;;;3.98;100.00;96287.00;5000450;28;20127;-62
2021/11/21 10:10:05;;;;;;;15.27;9.07;;;;;;;3.86;100.00;96275.34;4999722;28;20041;-62
2021/11/21 10:12:36;;;;;;;13.93;8.50;;;;;;;4.27;100.00;96279.03;4995763;28;20148;-62
2021/11/21 10:15:12;;;;;;;15.00;8.70;;;;;;;4.28;100.00;96277.94;4994100;28;20446;-62
2021/11/21 10:17:40;;;;;;;13.35;8.00;;;;;;;4.17;100.00;96269.44;5002350;28;20070;-63
2021/11/21 10:20:21;;;;;;;17.48;8.45;;;;;;;4.05;100.00;96266.69;4992238;28;20064;-62
2021/11/21 10:22:51;;;;;;;16.00;9.20;;;;;;;4.21;100.00;96259.50;4993768;28;20030;-61
2021/11/21 10:25:32;;;;;;;17.27;9.70;;;;;;;3.80;100.00;96243.03;4995831;28;20359;-62
2021/11/21 10:28:10;;;;;;;16.30;9.10;;;;;;;3.89;100.00;96239.41;5000647;28;20049;-63
2021/11/21 10:30:58;;;;;;;17.23;9.15;;;;;;;3.71;100.00;96230.66;4996069;28;20151;-62
2021/11/21 10:33:27;;;;;;;14.93;8.38;;;;;;;3.89;100.00;96234.81;4992012;28;20811;-62
2021/11/21 10:36:02;;;;;;;16.17;9.40;;;;;;;4.00;100.00;96229.75;4995733;28;20403;-62
2021/11/21 10:38:59;;;;;;;15.80;9.18;;;;;;;3.65;100.00;96224.69;4993432;28;20049;-63
2021/11/21 10:41:29;;;;;;;18.45;9.65;;;;;;;4.20;100.00;96222.69;4988437;28;20533;-63
2021/11/21 10:43:58;;;;;;;15.95;8.70;;;;;;;4.45;100.00;96212.66;4999664;28;20041;-64
2021/11/21 10:46:48;;;;;;;15.40;9.10;;;;;;;4.59;99.09;96212.28;4988544;28;20533;-63
2021/11/21 10:49:27;;;;;;;14.57;8.35;;;;;;;4.52;99.98;96198.50;4996282;28;20840;-63
2021/11/21 10:51:59;;;;;;;15.32;8.85;;;;;;;4.60;100.00;96192.97;4993977;28;20046;-62
2021/11/21 10:54:31;;;;;;;14.20;7.93;;;;;;;4.54;97.77;96197.06;4994408;28;20050;-63
2021/11/21 10:56:59;;;;;;;16.40;9.73;;;;;;;4.38;99.70;96193.44;4992509;28;20108;-62
2021/11/21 10:59:34;;;;;;;14.93;9.05;;;;;;;4.86;98.38;96193.75;4994833;28;20160;-63
2021/11/21 11:02:30;;;;;;;15.02;8.48;;;;;;;5.16;96.71;96191.53;4994701;28;20433;-64
2021/11/21 11:04:58;;;;;;;17.70;9.68;;;;;;;4.79;98.01;96186.19;4994223;28;20530;-63
2021/11/21 11:07:26;;;;;;;14.68;8.65;;;;;;;4.87;97.16;96179.84;4994270;28;20084;-63
2021/11/21 11:09:53;;;;;;;13.80;8.00;;;;;;;4.90;96.61;96179.16;4997977;28;20426;-63
2021/11/21 11:12:20;;;;;;;17.05;8.95;;;;;;;4.97;96.76;96182.09;4995563;28;20483;-64
2021/11/21 11:14:46;;;;;;;12.02;8.10;;;;;;;4.93;95.99;96177.66;4995889;28;20049;-63
2021/11/21 11:17:11;;;;;;;13.68;8.43;;;;;;;4.93;96.52;96170.34;4993669;28;20112;-63
2021/11/21 11:19:37;;;;;;;37.50;19.63;;;;;;;5.16;94.93;96169.81;4999562;28;20042;-62
2021/11/21 11:22:04;;;;;;;14.40;8.15;;;;;;;5.30;94.89;96167.50;4996881;28;20130;-62